createdAt,value
2022-10-26T00:00:43.796Z,10.35
2022-10-26T00:03:10.796Z,10.61
2022-10-26T00:05:38.237Z,10.73
2022-10-26T00:08:06.029Z,10.68
2022-10-26T00:10:34.796Z,10.21
2022-10-26T00:13:02.476Z,9.99
2022-10-26T00:15:30.012Z,10.17
2022-10-26T00:17:58.915Z,10.21
2022-10-26T00:20:26.056Z,10.64
2022-10-26T00:22:53.040Z,10.21
2022-10-26T00:25:20.056Z,10.94
2022-10-26T00:27:47.405Z,11.22
2022-10-26T00:30:16.318Z,11.54
2022-10-26T00:32:43.358Z,11.12
2022-10-26T00:35:22.830Z,11.41
2022-10-26T00:37:54.836Z,11.10
2022-10-26T00:40:22.116Z,11.51
2022-10-26T00:42:49.479Z,11.75
2022-10-26T00:45:22.939Z,12.37
2022-10-26T00:47:56.764Z,11.65
2022-10-26T00:50:32.789Z,13.20
2022-10-26T00:53:03.166Z,13.66
2022-10-26T00:55:34.926Z,13.90
2022-10-26T00:58:06.048Z,13.20
2022-10-26T01:00:33.324Z,13.58
2022-10-26T01:03:05.163Z,14.27
2022-10-26T01:05:37.865Z,13.89
2022-10-26T01:08:05.983Z,13.85
2022-10-26T01:10:34.725Z,13.74
2022-10-26T01:13:03.248Z,13.63
2022-10-26T01:15:41.751Z,13.78
2022-10-26T01:18:20.056Z,13.06
2022-10-26T01:21:19.427Z,12.09
2022-10-26T01:24:10.286Z,10.47
2022-10-26T01:27:02.292Z,11.57
2022-10-26T01:30:03.303Z,11.50
2022-10-26T01:32:40.664Z,12.69
2022-10-26T01:35:14.506Z,12.44
2022-10-26T01:37:48.136Z,12.44
2022-10-26T01:40:24.326Z,12.69
2022-10-26T01:42:57.427Z,13.32
2022-10-26T01:45:26.524Z,12.94
2022-10-26T01:47:59.005Z,12.52
2022-10-26T01:50:27.885Z,12.69
2022-10-26T01:52:55.004Z,12.01
2022-10-26T01:55:44.865Z,12.02
2022-10-26T01:58:37.557Z,12.40
2022-10-26T02:01:23.816Z,12.15
2022-10-26T02:04:06.172Z,12.17
2022-10-26T02:06:46.197Z,11.44
2022-10-26T02:09:25.323Z,10.87
2022-10-26T02:11:54.565Z,10.16
2022-10-26T02:14:31.106Z,9.19
2022-10-26T02:17:07.463Z,7.27
2022-10-26T02:19:43.465Z,5.13
2022-10-26T02:22:17.284Z,4.26
2022-10-26T02:24:47.243Z,3.81
2022-10-26T02:27:21.203Z,3.76
2022-10-26T02:29:52.223Z,3.80
2022-10-26T02:32:23.665Z,3.60
2022-10-26T02:34:56.746Z,3.51
2022-10-26T02:37:27.162Z,3.63
2022-10-26T02:39:58.123Z,4.30
2022-10-26T02:42:27.970Z,5.11
2022-10-26T02:45:00.804Z,5.26
2022-10-26T02:47:28.284Z,6.29
2022-10-26T02:49:56.985Z,6.45
2022-10-26T02:52:34.468Z,6.51
2022-10-26T02:55:10.044Z,6.30
2022-10-26T02:57:40.623Z,7.40
2022-10-26T03:02:47.586Z,7.10
2022-10-26T03:05:22.155Z,8.13
2022-10-26T03:07:49.424Z,7.55
2022-10-26T03:10:16.550Z,7.31
2022-10-26T03:12:43.604Z,7.26
2022-10-26T03:15:11.264Z,7.05
2022-10-26T03:17:38.387Z,7.22
2022-10-26T03:20:06.685Z,7.48
2022-10-26T03:22:35.225Z,7.96
2022-10-26T03:25:02.506Z,8.06
2022-10-26T03:27:29.686Z,6.25
2022-10-26T03:29:56.805Z,5.79
2022-10-26T03:32:23.924Z,5.42
2022-10-26T03:34:51.004Z,5.43
2022-10-26T03:37:18.003Z,5.79
2022-10-26T03:39:46.526Z,5.89
2022-10-26T03:42:13.544Z,5.89
2022-10-26T03:44:40.544Z,6.73
2022-10-26T03:47:07.650Z,7.12
2022-10-26T03:49:34.685Z,7.04
2022-10-26T03:52:01.765Z,7.55
2022-10-26T03:54:28.744Z,7.70
2022-10-26T03:56:57.229Z,7.42
2022-10-26T03:59:24.265Z,7.77
2022-10-26T04:01:54.066Z,7.69
2022-10-26T04:04:23.945Z,7.80
2022-10-26T04:06:50.987Z,7.92
2022-10-26T04:09:18.006Z,8.23
2022-10-26T04:11:45.145Z,6.33
2022-10-26T04:14:13.685Z,5.03
2022-10-26T04:16:41.006Z,5.36
2022-10-26T04:19:08.185Z,5.00
2022-10-26T04:21:35.245Z,6.24
2022-10-26T04:24:03.007Z,5.56
2022-10-26T04:26:30.106Z,5.05
2022-10-26T04:28:57.147Z,5.35
2022-10-26T04:31:25.646Z,5.49
2022-10-26T04:33:52.704Z,6.11
2022-10-26T04:36:19.706Z,5.17
2022-10-26T04:38:49.184Z,6.05
2022-10-26T04:41:16.364Z,6.19
2022-10-26T04:43:43.385Z,5.50
2022-10-26T04:46:13.174Z,5.82
2022-10-26T04:48:42.970Z,6.06
2022-10-26T04:51:10.043Z,5.69
2022-10-26T04:53:37.107Z,6.25
2022-10-26T04:56:04.603Z,6.29
2022-10-26T04:58:31.668Z,6.41
2022-10-26T05:00:58.930Z,7.64
2022-10-26T05:03:25.943Z,7.29
2022-10-26T05:05:54.444Z,7.27
2022-10-26T05:08:21.423Z,7.59
2022-10-26T05:10:49.146Z,7.41
2022-10-26T05:13:16.989Z,7.01
2022-10-26T05:15:44.065Z,7.50
2022-10-26T05:18:11.125Z,7.75
2022-10-26T05:20:38.545Z,7.16
2022-10-26T05:23:12.085Z,7.52
2022-10-26T05:25:39.505Z,8.30
2022-10-26T05:28:10.765Z,8.03
2022-10-26T05:30:38.327Z,7.68
2022-10-26T05:33:05.867Z,8.13
2022-10-26T05:35:33.730Z,7.91
2022-10-26T05:38:06.527Z,7.69
2022-10-26T05:40:35.073Z,7.61
2022-10-26T05:43:02.728Z,7.42
2022-10-26T05:45:30.426Z,6.70
2022-10-26T05:48:00.218Z,7.40
2022-10-26T05:50:30.685Z,7.06
2022-10-26T05:52:57.824Z,6.92
2022-10-26T05:55:25.763Z,6.47
2022-10-26T05:57:55.206Z,6.62
2022-10-26T06:00:25.768Z,6.49
2022-10-26T06:03:08.948Z,5.54
2022-10-26T06:05:52.205Z,5.70
2022-10-26T06:08:20.474Z,6.05
2022-10-26T06:10:48.324Z,6.17
2022-10-26T06:13:17.726Z,5.98
2022-10-26T06:16:01.568Z,6.65
2022-10-26T06:18:41.487Z,5.92
2022-10-26T06:21:31.125Z,6.32
2022-10-26T06:24:07.944Z,6.19
2022-10-26T06:26:45.784Z,5.99
2022-10-26T06:29:44.104Z,5.70
2022-10-26T06:32:11.984Z,5.92
2022-10-26T06:34:46.846Z,5.99
2022-10-26T06:37:14.646Z,5.55
2022-10-26T06:39:48.769Z,5.16
2022-10-26T06:42:19.264Z,4.94
2022-10-26T06:44:48.904Z,5.93
2022-10-26T06:47:24.065Z,5.16
2022-10-26T06:50:02.774Z,5.74
2022-10-26T06:52:40.285Z,6.10
2022-10-26T06:55:15.006Z,6.02
2022-10-26T06:57:44.650Z,5.63
2022-10-26T07:00:21.587Z,5.23
2022-10-26T07:02:49.908Z,5.10
2022-10-26T07:05:18.065Z,5.24
2022-10-26T07:07:47.522Z,5.42
2022-10-26T07:10:15.224Z,5.13
2022-10-26T07:12:42.345Z,5.00
2022-10-26T07:15:10.218Z,4.80
2022-10-26T07:17:45.546Z,4.83
2022-10-26T07:20:13.314Z,4.85
2022-10-26T07:22:40.445Z,4.38
2022-10-26T07:25:08.465Z,5.00
2022-10-26T07:27:35.945Z,4.55
2022-10-26T07:30:03.727Z,4.31
2022-10-26T07:32:30.804Z,3.65
2022-10-26T07:34:59.285Z,3.56
2022-10-26T07:37:26.388Z,3.60
2022-10-26T07:39:53.425Z,3.29
2022-10-26T07:42:20.505Z,3.73
2022-10-26T07:44:47.605Z,3.10
2022-10-26T07:47:15.011Z,3.17
2022-10-26T07:49:42.184Z,3.17
2022-10-26T07:52:11.052Z,2.77
2022-10-26T07:54:38.144Z,2.85
2022-10-26T07:59:37.125Z,2.57
2022-10-26T08:02:04.274Z,2.49
2022-10-26T08:04:31.507Z,2.30
2022-10-26T08:06:58.548Z,2.25
2022-10-26T08:09:27.086Z,1.89
2022-10-26T08:11:54.146Z,2.19
2022-10-26T08:14:21.785Z,1.79
2022-10-26T08:16:48.905Z,1.69
2022-10-26T08:19:15.944Z,1.98
2022-10-26T08:21:43.144Z,1.97
2022-10-26T08:24:10.684Z,1.87
2022-10-26T08:26:39.186Z,2.04
2022-10-26T08:29:06.207Z,1.87
2022-10-26T08:31:33.611Z,1.81
2022-10-26T08:34:00.777Z,1.85
2022-10-26T08:36:28.651Z,1.99
2022-10-26T08:38:55.950Z,1.82
2022-10-26T08:41:35.865Z,2.18
2022-10-26T08:44:17.727Z,2.25
2022-10-26T08:46:50.545Z,2.61
2022-10-26T08:49:22.947Z,2.49
2022-10-26T08:51:55.650Z,2.50
2022-10-26T08:54:35.482Z,2.59
2022-10-26T08:57:15.684Z,2.83
2022-10-26T08:59:54.165Z,2.64
2022-10-26T09:02:22.525Z,2.88
2022-10-26T09:04:49.627Z,2.61
2022-10-26T09:07:31.806Z,2.58
2022-10-26T09:10:15.269Z,2.74
2022-10-26T09:12:54.187Z,2.58
2022-10-26T09:15:34.507Z,2.48
2022-10-26T09:18:27.009Z,2.63
2022-10-26T09:21:09.446Z,2.53
2022-10-26T09:24:02.585Z,2.59
2022-10-26T09:26:36.707Z,2.85
2022-10-26T09:29:07.448Z,2.60
2022-10-26T09:31:44.488Z,2.56
2022-10-26T09:34:27.747Z,2.76
2022-10-26T09:36:56.180Z,2.60
2022-10-26T09:39:35.506Z,2.62
2022-10-26T09:42:14.811Z,2.47
2022-10-26T09:44:51.126Z,2.92
2022-10-26T09:47:31.713Z,3.14
2022-10-26T09:50:16.124Z,2.96
2022-10-26T09:52:43.187Z,2.71
2022-10-26T09:55:11.615Z,2.41
2022-10-26T09:57:42.385Z,2.59
2022-10-26T10:00:14.829Z,2.50
2022-10-26T10:02:43.586Z,2.60
2022-10-26T10:05:50.400Z,2.39
2022-10-26T10:08:20.085Z,2.24
2022-10-26T10:11:08.847Z,2.34
2022-10-26T10:13:38.730Z,2.21
2022-10-26T10:16:12.225Z,2.25
2022-10-26T10:18:41.708Z,2.27
2022-10-26T10:21:11.506Z,2.23
2022-10-26T10:23:49.947Z,2.38
2022-10-26T10:26:17.036Z,2.14
2022-10-26T10:28:57.605Z,2.11
2022-10-26T10:31:29.448Z,1.93
2022-10-26T10:33:57.004Z,2.07
2022-10-26T10:36:29.505Z,2.14
2022-10-26T10:38:57.185Z,1.91
2022-10-26T10:41:29.405Z,1.77
2022-10-26T10:44:04.865Z,1.81
2022-10-26T10:46:32.183Z,2.04
2022-10-26T10:49:05.521Z,2.25
2022-10-26T10:51:40.214Z,1.82
2022-10-26T10:54:23.004Z,2.03
2022-10-26T10:56:55.005Z,2.85
2022-10-26T10:59:41.425Z,2.02
2022-10-26T11:02:40.778Z,2.26
2022-10-26T11:05:27.166Z,1.82
2022-10-26T11:08:04.486Z,1.83
2022-10-26T11:10:38.117Z,2.01
2022-10-26T11:13:17.185Z,1.82
2022-10-26T11:15:49.584Z,2.15
2022-10-26T11:18:22.429Z,2.02
2022-10-26T11:23:36.323Z,1.85
2022-10-26T11:26:14.469Z,2.12
2022-10-26T11:28:50.963Z,1.81
2022-10-26T11:31:25.245Z,1.97
2022-10-26T11:34:08.305Z,2.02
2022-10-26T11:36:39.964Z,2.01
2022-10-26T11:39:20.799Z,1.88
2022-10-26T11:41:55.785Z,2.11
2022-10-26T11:44:30.608Z,1.92
2022-10-26T11:47:05.345Z,1.94
2022-10-26T11:49:42.548Z,2.00
2022-10-26T11:52:16.863Z,1.94
2022-10-26T11:54:53.435Z,2.07
2022-10-26T11:57:24.047Z,2.03
2022-10-26T11:59:55.867Z,2.20
2022-10-26T12:02:25.338Z,2.14
2022-10-26T12:04:57.985Z,2.05
2022-10-26T12:07:30.128Z,2.05
2022-10-26T12:10:02.887Z,2.06
2022-10-26T12:12:38.965Z,2.21
2022-10-26T12:15:22.834Z,2.15
2022-10-26T12:18:02.064Z,2.33
2022-10-26T12:20:57.586Z,2.40
2022-10-26T12:23:40.499Z,2.12
2022-10-26T12:26:47.703Z,2.08
2022-10-26T12:29:35.525Z,2.05
2022-10-26T12:32:03.664Z,1.90
2022-10-26T12:35:03.565Z,1.90
2022-10-26T12:37:37.465Z,2.11
2022-10-26T12:40:40.637Z,1.99
2022-10-26T12:43:33.839Z,2.10
2022-10-26T12:46:36.786Z,1.94
2022-10-26T12:49:40.031Z,2.25
2022-10-26T12:52:20.606Z,2.07
2022-10-26T12:55:15.268Z,2.19
2022-10-26T12:57:57.569Z,2.02
2022-10-26T13:00:27.618Z,2.07
2022-10-26T13:03:15.652Z,2.36
2022-10-26T13:06:21.047Z,2.49
2022-10-26T13:08:56.255Z,2.45
2022-10-26T13:11:32.485Z,2.58
2022-10-26T13:14:05.311Z,2.62
2022-10-26T13:16:34.086Z,2.75
2022-10-26T13:19:01.925Z,3.34
2022-10-26T13:21:31.186Z,3.06
2022-10-26T13:24:01.289Z,3.30
2022-10-26T13:26:30.508Z,3.02
2022-10-26T13:29:00.434Z,3.18
2022-10-26T13:31:55.727Z,3.02
2022-10-26T13:34:27.302Z,2.91
2022-10-26T13:37:12.386Z,2.91
2022-10-26T13:39:43.785Z,3.02
2022-10-26T13:42:19.725Z,2.68
2022-10-26T13:44:54.356Z,2.46
2022-10-26T13:47:29.286Z,2.81
2022-10-26T13:50:04.309Z,2.86
2022-10-26T13:52:38.426Z,2.98
2022-10-26T13:55:15.607Z,2.61
2022-10-26T13:57:46.147Z,2.49
2022-10-26T14:00:19.390Z,2.44
2022-10-26T14:02:46.828Z,2.88
2022-10-26T14:05:18.007Z,2.67
2022-10-26T14:07:55.675Z,2.62
2022-10-26T14:10:28.656Z,2.89
2022-10-26T14:12:56.627Z,2.99
2022-10-26T14:15:28.629Z,2.77
2022-10-26T14:17:56.848Z,2.60
2022-10-26T14:20:28.146Z,3.04
2022-10-26T14:22:56.966Z,3.07
2022-10-26T14:25:36.152Z,2.77
2022-10-26T14:28:29.451Z,2.94
2022-10-26T14:31:14.048Z,2.91
2022-10-26T14:33:43.746Z,3.25
2022-10-26T14:36:12.426Z,3.26
2022-10-26T14:38:47.366Z,2.92
2022-10-26T14:41:17.765Z,3.07
2022-10-26T14:43:46.526Z,3.29
2022-10-26T14:46:17.714Z,2.91
2022-10-26T14:48:53.826Z,3.01
2022-10-26T14:51:26.105Z,3.32
2022-10-26T14:53:58.165Z,3.19
2022-10-26T14:56:30.666Z,3.46
2022-10-26T14:58:59.193Z,3.35
2022-10-26T15:01:35.611Z,3.28
2022-10-26T15:04:06.254Z,2.98
2022-10-26T15:06:43.605Z,2.95
2022-10-26T15:09:38.391Z,3.17
2022-10-26T15:12:07.009Z,3.07
2022-10-26T15:14:35.586Z,3.34
2022-10-26T15:17:03.187Z,3.61
2022-10-26T15:19:30.709Z,3.77
2022-10-26T15:21:58.545Z,4.29
2022-10-26T15:24:38.644Z,4.41
2022-10-26T15:27:16.011Z,3.33
2022-10-26T15:29:45.481Z,3.46
2022-10-26T15:32:28.426Z,3.11
2022-10-26T15:35:15.565Z,3.37
2022-10-26T15:37:42.948Z,3.14
2022-10-26T15:40:12.719Z,3.46
2022-10-26T15:42:42.355Z,3.54
2022-10-26T15:45:18.233Z,3.79
2022-10-26T15:47:45.978Z,4.19
2022-10-26T15:50:19.069Z,4.95
2022-10-26T15:52:49.070Z,5.96
2022-10-26T15:55:19.028Z,5.83
2022-10-26T15:57:46.435Z,5.78
2022-10-26T16:00:18.374Z,5.70
2022-10-26T16:02:46.126Z,5.67
2022-10-26T16:05:15.536Z,6.13
2022-10-26T16:07:45.345Z,5.81
2022-10-26T16:10:21.745Z,6.04
2022-10-26T16:12:48.927Z,6.43
2022-10-26T16:15:18.906Z,6.55
2022-10-26T16:17:46.760Z,5.53
2022-10-26T16:20:16.690Z,5.36
2022-10-26T16:22:44.086Z,4.90
2022-10-26T16:25:11.266Z,5.61
2022-10-26T16:27:40.305Z,5.93
2022-10-26T16:30:09.086Z,6.30
2022-10-26T16:32:36.266Z,6.63
2022-10-26T16:35:03.586Z,6.72
2022-10-26T16:37:30.806Z,6.27
2022-10-26T16:39:58.049Z,6.00
2022-10-26T16:42:25.365Z,6.71
2022-10-26T16:44:54.128Z,6.62
2022-10-26T16:49:53.326Z,6.67
2022-10-26T16:52:20.387Z,6.93
2022-10-26T16:54:47.926Z,6.21
2022-10-26T16:57:14.986Z,5.87
2022-10-26T16:59:42.027Z,5.90
2022-10-26T17:02:14.323Z,6.52
2022-10-26T17:04:41.666Z,6.92
2022-10-26T17:07:09.146Z,6.31
2022-10-26T17:09:36.286Z,5.92
2022-10-26T17:12:04.087Z,6.03
2022-10-26T17:14:31.184Z,6.06
2022-10-26T17:16:58.304Z,6.42
2022-10-26T17:19:26.989Z,6.40
2022-10-26T17:21:54.327Z,5.72
2022-10-26T17:24:22.107Z,5.56
2022-10-26T17:26:49.326Z,5.65
2022-10-26T17:29:16.546Z,6.06
2022-10-26T17:31:43.628Z,5.93
2022-10-26T17:34:10.692Z,5.30
2022-10-26T17:36:39.303Z,5.12
2022-10-26T17:39:06.304Z,5.15
2022-10-26T17:41:33.447Z,6.49
2022-10-26T17:44:00.606Z,6.75
2022-10-26T17:46:28.443Z,5.57
2022-10-26T17:48:56.308Z,6.00
2022-10-26T17:51:24.104Z,6.39
2022-10-26T17:53:53.477Z,6.48
2022-10-26T17:56:22.324Z,6.26
2022-10-26T17:58:53.403Z,6.13
2022-10-26T18:01:21.045Z,6.37
2022-10-26T18:03:48.448Z,6.39
2022-10-26T18:06:15.904Z,6.33
2022-10-26T18:08:45.009Z,5.82
2022-10-26T18:11:16.552Z,5.71
2022-10-26T18:13:44.185Z,6.17
2022-10-26T18:16:13.385Z,6.24
2022-10-26T18:18:42.484Z,5.59
2022-10-26T18:21:12.924Z,5.80
2022-10-26T18:23:40.105Z,6.07
2022-10-26T18:26:13.987Z,6.30
2022-10-26T18:28:43.288Z,6.06
2022-10-26T18:31:12.706Z,6.02
2022-10-26T18:33:40.106Z,6.24
2022-10-26T18:36:09.789Z,6.16
2022-10-26T18:38:38.085Z,6.50
2022-10-26T18:41:05.945Z,6.26
2022-10-26T18:43:33.264Z,6.41
2022-10-26T18:46:05.886Z,6.92
2022-10-26T18:48:33.225Z,6.59
2022-10-26T18:51:04.884Z,6.51
2022-10-26T18:53:33.785Z,7.11
2022-10-26T18:56:02.747Z,6.81
2022-10-26T18:58:31.185Z,6.66
2022-10-26T19:01:08.904Z,6.85
2022-10-26T19:03:36.579Z,6.44
2022-10-26T19:06:11.784Z,6.54
2022-10-26T19:08:40.376Z,6.54
2022-10-26T19:11:09.746Z,6.12
2022-10-26T19:13:36.859Z,6.61
2022-10-26T19:16:16.966Z,6.55
2022-10-26T19:18:49.340Z,6.58
2022-10-26T19:21:18.964Z,6.27
2022-10-26T19:23:48.426Z,6.25
2022-10-26T19:26:18.144Z,5.90
2022-10-26T19:28:45.984Z,5.87
2022-10-26T19:31:15.384Z,5.80
2022-10-26T19:33:42.664Z,6.33
2022-10-26T19:36:12.423Z,6.16
2022-10-26T19:38:39.485Z,5.88
2022-10-26T19:41:09.665Z,5.93
2022-10-26T19:43:36.924Z,6.70
2022-10-26T19:46:09.528Z,6.15
2022-10-26T19:48:39.226Z,6.41
2022-10-26T19:51:07.844Z,6.80
2022-10-26T19:53:35.504Z,6.69
2022-10-26T19:56:02.744Z,6.09
2022-10-26T19:58:31.291Z,5.65
2022-10-26T20:00:59.985Z,6.07
2022-10-26T20:03:28.224Z,6.21
2022-10-26T20:05:58.324Z,6.10
2022-10-26T20:08:25.954Z,6.02
2022-10-26T20:10:55.046Z,6.14
2022-10-26T20:13:22.804Z,6.36
2022-10-26T20:15:51.884Z,6.18
2022-10-26T20:18:19.404Z,6.20
2022-10-26T20:20:46.705Z,6.32
2022-10-26T20:23:15.404Z,6.20
2022-10-26T20:25:46.637Z,5.84
2022-10-26T20:28:14.985Z,5.97
2022-10-26T20:30:43.324Z,5.75
2022-10-26T20:33:11.766Z,5.76
2022-10-26T20:35:39.584Z,6.18
2022-10-26T20:38:16.012Z,5.79
2022-10-26T20:40:54.228Z,5.43
2022-10-26T20:43:22.287Z,5.19
2022-10-26T20:45:49.464Z,4.77
2022-10-26T20:48:17.424Z,5.42
2022-10-26T20:50:53.325Z,5.18
2022-10-26T20:53:29.249Z,4.67
2022-10-26T20:56:00.109Z,4.30
2022-10-26T20:58:39.048Z,4.71
2022-10-26T21:01:12.007Z,5.23
2022-10-26T21:03:39.744Z,5.45
2022-10-26T21:06:06.944Z,5.64
2022-10-26T21:08:34.046Z,5.82
2022-10-26T21:11:02.989Z,5.73
2022-10-26T21:13:30.167Z,6.19
2022-10-26T21:15:57.285Z,6.67
2022-10-26T21:18:24.426Z,5.52
2022-10-26T21:20:51.465Z,5.41
2022-10-26T21:23:18.827Z,5.74
2022-10-26T21:25:46.464Z,6.17
2022-10-26T21:28:15.125Z,6.29
2022-10-26T21:30:42.524Z,5.29
2022-10-26T21:33:09.725Z,5.55
2022-10-26T21:35:36.885Z,5.84
2022-10-26T21:38:03.944Z,4.39
2022-10-26T21:40:31.026Z,4.88
2022-10-26T21:42:58.064Z,4.58
2022-10-26T21:45:26.904Z,4.92
2022-10-26T21:47:54.666Z,5.09
2022-10-26T21:50:21.744Z,4.71
2022-10-26T21:52:53.355Z,5.00
2022-10-26T21:55:21.424Z,5.50
2022-10-26T21:57:48.689Z,5.63
2022-10-26T22:00:17.054Z,6.73
2022-10-26T22:02:45.664Z,6.67
2022-10-26T22:05:12.865Z,6.29
2022-10-26T22:07:39.904Z,6.03
2022-10-26T22:10:10.622Z,6.41
2022-10-26T22:12:38.204Z,6.23
2022-10-26T22:15:06.527Z,5.07
2022-10-26T22:17:37.684Z,5.33
2022-10-26T22:20:07.985Z,5.44
2022-10-26T22:22:35.124Z,4.85
2022-10-26T22:25:02.506Z,4.88
2022-10-26T22:27:29.986Z,5.47
2022-10-26T22:29:57.104Z,5.62
2022-10-26T22:32:24.201Z,5.19
2022-10-26T22:35:00.236Z,5.10
2022-10-26T22:37:38.987Z,5.24
2022-10-26T22:40:07.104Z,5.51
2022-10-26T22:42:34.166Z,5.76
2022-10-26T22:45:01.166Z,5.82
2022-10-26T22:47:28.224Z,5.91
2022-10-26T22:49:55.264Z,5.91
2022-10-26T22:52:22.285Z,5.93
2022-10-26T22:54:50.785Z,5.44
2022-10-26T22:57:17.864Z,4.99
2022-10-26T22:59:44.903Z,5.21
2022-10-26T23:02:12.061Z,5.69
2022-10-26T23:04:39.175Z,5.28
2022-10-26T23:07:06.264Z,5.08
2022-10-26T23:09:33.524Z,4.50
2022-10-26T23:12:02.164Z,4.18
2022-10-26T23:14:29.224Z,3.80
2022-10-26T23:16:56.244Z,3.65
2022-10-26T23:19:23.284Z,4.27
2022-10-26T23:21:50.385Z,3.78
2022-10-26T23:24:17.404Z,4.08
2022-10-26T23:26:44.468Z,4.48
2022-10-26T23:29:13.084Z,4.38
2022-10-26T23:31:40.144Z,4.58
2022-10-26T23:34:07.184Z,4.69
2022-10-26T23:36:34.264Z,5.04
2022-10-26T23:39:01.531Z,4.93
2022-10-26T23:41:28.625Z,4.35
2022-10-26T23:43:55.664Z,4.74
2022-10-26T23:46:24.207Z,4.53
2022-10-26T23:48:51.225Z,4.65
2022-10-26T23:51:18.305Z,4.46
2022-10-26T23:53:45.344Z,5.08
2022-10-26T23:56:12.404Z,4.51
2022-10-26T23:58:39.484Z,4.04
